createdAt,value
2022-10-12T00:05:42.161Z,984.96
2022-10-12T00:13:16.861Z,985
2022-10-12T00:20:49.957Z,984.99
2022-10-12T00:28:39.483Z,985.02
2022-10-12T00:36:12.158Z,984.96
2022-10-12T00:43:48.116Z,984.98
2022-10-12T00:51:44.538Z,985.01
2022-10-12T00:59:29.590Z,985.04
2022-10-12T01:07:17.718Z,984.99
2022-10-12T01:14:40.880Z,985.01
2022-10-12T01:22:46.432Z,984.97
2022-10-12T01:31:13.422Z,984.94
2022-10-12T01:39:34.182Z,984.87
2022-10-12T01:47:35.249Z,984.75
2022-10-12T01:55:40.323Z,984.67
2022-10-12T02:04:03.583Z,984.66
2022-10-12T02:12:30.627Z,984.53
2022-10-12T02:20:40.110Z,984.43
2022-10-12T02:28:32.975Z,984.47
2022-10-12T02:36:43.966Z,984.47
2022-10-12T02:44:57.872Z,984.51
2022-10-12T02:52:53.717Z,984.4
2022-10-12T03:00:38.378Z,984.32
2022-10-12T03:08:17.738Z,984.22
2022-10-12T03:15:45.090Z,984.3
2022-10-12T03:23:25.781Z,984.35
2022-10-12T03:30:56.954Z,984.32
2022-10-12T03:38:38.032Z,984.34
2022-10-12T03:46:25.472Z,984.39
2022-10-12T03:54:07.355Z,984.35
2022-10-12T04:01:53.059Z,984.35
2022-10-12T04:09:34.795Z,984.31
2022-10-12T04:17:08.491Z,984.24
2022-10-12T04:24:53.759Z,984.24
2022-10-12T04:32:33.912Z,984.34
2022-10-12T04:40:16.957Z,984.38
2022-10-12T04:47:56.478Z,984.38
2022-10-12T04:55:45.040Z,984.35
2022-10-12T05:03:24.989Z,984.3
2022-10-12T05:10:58.352Z,984.3
2022-10-12T05:18:35.240Z,984.25
2022-10-12T05:26:15.605Z,984.26
2022-10-12T05:33:58.303Z,984.24
2022-10-12T05:41:38.042Z,984.16
2022-10-12T05:49:18.579Z,984.24
2022-10-12T05:57:00.525Z,984.25
2022-10-12T06:04:30.316Z,984.22
2022-10-12T06:12:08.677Z,984.25
2022-10-12T06:20:01.282Z,984.3
2022-10-12T06:27:35.739Z,984.24
2022-10-12T06:35:18.289Z,984.22
2022-10-12T06:43:16.337Z,984.29
2022-10-12T06:51:06.927Z,984.36
2022-10-12T06:58:52.457Z,984.41
2022-10-12T07:07:02.105Z,984.38
2022-10-12T07:14:56.460Z,984.41
2022-10-12T07:22:34.386Z,984.43
2022-10-12T07:30:24.519Z,984.48
2022-10-12T07:38:14.633Z,984.54
2022-10-12T07:46:04.617Z,984.46
2022-10-12T07:53:57.057Z,984.44
2022-10-12T08:01:48.728Z,984.46
2022-10-12T08:09:37.868Z,984.41
2022-10-12T08:17:36.502Z,984.5
2022-10-12T08:25:12.295Z,984.55
2022-10-12T08:33:01.059Z,984.49
2022-10-12T08:41:10.140Z,984.59
2022-10-12T08:49:35.511Z,984.55
2022-10-12T08:58:02.915Z,984.45
2022-10-12T09:06:08.339Z,984.44
2022-10-12T09:14:44.301Z,984.44
2022-10-12T09:23:27.770Z,984.39
2022-10-12T09:32:15.284Z,984.41
2022-10-12T09:40:37.312Z,984.42
2022-10-12T09:48:50.929Z,984.48
2022-10-12T09:57:14.298Z,984.5
2022-10-12T10:05:13.337Z,984.41
2022-10-12T10:13:30.604Z,984.28
2022-10-12T10:22:23.205Z,984.27
2022-10-12T10:30:38.192Z,984.26
2022-10-12T10:39:04.690Z,984.25
2022-10-12T10:47:31.642Z,984.26
2022-10-12T10:56:00.190Z,984.14
2022-10-12T11:04:25.859Z,984.05
2022-10-12T11:12:50.832Z,984.01
2022-10-12T11:21:07.069Z,984.02
2022-10-12T11:29:18.155Z,983.94
2022-10-12T11:37:31.281Z,983.93
2022-10-12T11:46:04.972Z,983.84
2022-10-12T11:54:31.073Z,983.8
2022-10-12T12:02:49.870Z,983.72
2022-10-12T12:11:04.758Z,983.62
2022-10-12T12:19:01.301Z,983.6
2022-10-12T12:27:02.163Z,983.59
2022-10-12T12:35:05.400Z,983.44
2022-10-12T12:43:14.539Z,983.4
2022-10-12T12:51:09.696Z,983.33
2022-10-12T12:59:06.373Z,983.23
2022-10-12T13:07:15.931Z,983.25
2022-10-12T13:15:06.225Z,983.34
2022-10-12T13:23:15.592Z,983.25
2022-10-12T13:31:20.548Z,983.2
2022-10-12T13:39:09.229Z,983.2
2022-10-12T13:47:16.576Z,983.14
2022-10-12T13:55:17.739Z,982.98
2022-10-12T14:03:26.482Z,982.92
2022-10-12T14:11:34.366Z,982.92
2022-10-12T14:19:22.052Z,982.97
2022-10-12T14:27:32.836Z,982.92
2022-10-12T14:35:49.314Z,982.81
2022-10-12T14:43:53.282Z,982.83
2022-10-12T14:51:39.653Z,982.84
2022-10-12T14:59:29.857Z,982.74
2022-10-12T15:07:08.595Z,982.66
2022-10-12T15:14:56.869Z,982.68
2022-10-12T15:22:26.683Z,982.65
2022-10-12T15:30:09.305Z,982.57
2022-10-12T15:37:50.408Z,982.56
2022-10-12T15:45:38.182Z,982.56
2022-10-12T15:53:36.638Z,982.51
2022-10-12T16:01:09.455Z,982.41
2022-10-12T16:08:47.174Z,982.39
2022-10-12T16:16:31.960Z,982.52
2022-10-12T16:24:19.622Z,982.59
2022-10-12T16:31:59.995Z,982.52
2022-10-12T16:39:40.183Z,982.58
2022-10-12T16:47:02.900Z,982.54
2022-10-12T16:54:35.363Z,982.56
2022-10-12T17:02:12.172Z,982.6
2022-10-12T17:09:55.454Z,982.61
2022-10-12T17:17:26.225Z,982.58
2022-10-12T17:25:08.050Z,982.61
2022-10-12T17:32:36.086Z,982.54
2022-10-12T17:40:17.389Z,982.67
2022-10-12T17:47:44.134Z,982.82
2022-10-12T17:55:36.475Z,982.71
2022-10-12T18:02:55.733Z,982.69
2022-10-12T18:10:35.646Z,982.75
2022-10-12T18:18:20.863Z,982.9
2022-10-12T18:25:49.367Z,983.03
2022-10-12T18:33:40.751Z,982.97
2022-10-12T18:41:10.099Z,982.93
2022-10-12T18:48:50.274Z,982.89
2022-10-12T18:56:34.724Z,982.89
2022-10-12T19:04:24.990Z,982.95
2022-10-12T19:12:05.753Z,982.95
2022-10-12T19:19:50.384Z,983
2022-10-12T19:27:36.153Z,982.98
2022-10-12T19:35:29.432Z,982.98
2022-10-12T19:43:22.830Z,982.82
2022-10-12T19:51:09.412Z,982.96
2022-10-12T19:58:56.094Z,982.92
2022-10-12T20:06:48.788Z,982.89
2022-10-12T20:14:19.297Z,983.01
2022-10-12T20:21:52.770Z,982.97
2022-10-12T20:29:33.415Z,983.08
2022-10-12T20:37:20.327Z,983.14
2022-10-12T20:45:04.468Z,982.96
2022-10-12T20:52:48.103Z,982.93
2022-10-12T21:00:33.875Z,982.97
2022-10-12T21:08:10.796Z,982.85
2022-10-12T21:15:54.642Z,982.78
2022-10-12T21:23:55.039Z,982.65
2022-10-12T21:31:33.991Z,982.64
2022-10-12T21:39:20.552Z,982.69
2022-10-12T21:47:19.446Z,982.76
2022-10-12T21:54:54.251Z,982.74
2022-10-12T22:02:42.181Z,982.73
2022-10-12T22:10:29.467Z,982.83
2022-10-12T22:18:20.828Z,982.81
2022-10-12T22:26:12.044Z,982.83
2022-10-12T22:33:58.264Z,982.85
2022-10-12T22:41:46.314Z,982.78
2022-10-12T22:49:25.514Z,982.63
2022-10-12T22:57:07.718Z,982.63
2022-10-12T23:04:45.478Z,982.62
2022-10-12T23:12:34.551Z,982.64
2022-10-12T23:20:02.223Z,982.6
2022-10-12T23:27:50.555Z,982.7
2022-10-12T23:35:55.730Z,982.62
2022-10-12T23:43:28.885Z,982.68
2022-10-12T23:51:12.619Z,982.65
2022-10-12T23:58:50.958Z,982.67
